Termas de Chillan, Chile
Current Conditions -  °F | °C
As of 6:00 AM on Wednesday 22 Oct 2014 (Local Time) from SCIE Reporting Station
Overcast Overcast  
Wind Chill: 55°   Ceiling: 600
Heat Index: 55°   Visibility: 6mi
Dew Point: 52°   Wind: 6mph
Humidity: 88%   Direction: 210°SSW
Pressure: 30.06"   Gusts: NA
Location:  36.9°S, 71.52°W
Report Text: SCIE 221000Z 21005KT 170V230 9999 OVC006 13/11 Q1018
Loading
Personal Weather Stations






























Interactive Weather Map
Tropical Storm Tracking
New forecast layout! Learn more

10-Day Weather Forecast

Advertisements
Track Severe Weather on mobile